createdAt,value
2018-04-19T00:02:00.085Z,13.50
2018-04-19T00:04:27.611Z,13.40
2018-04-19T00:06:55.177Z,13.30
2018-04-19T00:09:23.448Z,13.30
2018-04-19T00:11:51.724Z,13.30
2018-04-19T00:14:20.033Z,13.30
2018-04-19T00:16:47.529Z,13.20
2018-04-19T00:19:15.048Z,13.10
2018-04-19T00:21:43.353Z,13.10
2018-04-19T00:24:10.905Z,13.00
2018-04-19T00:26:38.430Z,13.00
2018-04-19T00:29:06.721Z,13.00
2018-04-19T00:31:34.232Z,12.90
2018-04-19T00:34:01.790Z,12.80
2018-04-19T00:36:29.318Z,12.80
2018-04-19T00:38:56.813Z,12.90
2018-04-19T00:41:24.363Z,12.80
2018-04-19T00:43:52.654Z,12.80
2018-04-19T00:46:20.175Z,12.80
2018-04-19T00:48:47.705Z,12.80
2018-04-19T00:51:15.267Z,12.90
2018-04-19T00:53:42.773Z,12.80
2018-04-19T00:56:11.052Z,12.80
2018-04-19T00:58:38.594Z,12.70
2018-04-19T01:01:06.114Z,12.60
2018-04-19T01:03:33.638Z,12.60
2018-04-19T01:06:01.194Z,12.60
2018-04-19T01:08:28.713Z,12.50
2018-04-19T01:10:56.237Z,12.50
2018-04-19T01:13:25.274Z,12.40
2018-04-19T01:15:52.809Z,12.40
2018-04-19T01:18:21.098Z,12.40
2018-04-19T01:20:49.399Z,12.40
2018-04-19T01:23:16.909Z,12.30
2018-04-19T01:25:44.419Z,12.40
2018-04-19T01:28:12.711Z,12.30
2018-04-19T01:30:40.232Z,12.30
2018-04-19T01:33:07.757Z,12.30
2018-04-19T01:35:47.348Z,12.30
2018-04-19T01:38:14.858Z,12.30
2018-04-19T01:40:42.363Z,12.10
2018-04-19T01:43:10.062Z,12.10
2018-04-19T01:45:38.328Z,12.10
2018-04-19T01:48:06.594Z,12.10
2018-04-19T01:50:34.896Z,12.00
2018-04-19T01:53:03.192Z,12.00
2018-04-19T01:55:30.731Z,11.90
2018-04-19T01:57:59.032Z,11.90
2018-04-19T02:00:27.312Z,11.90
2018-04-19T02:02:55.590Z,11.90
2018-04-19T02:05:23.881Z,11.90
2018-04-19T02:07:51.405Z,11.80
2018-04-19T02:10:19.701Z,11.80
2018-04-19T02:12:47.291Z,11.80
2018-04-19T02:15:14.800Z,11.60
2018-04-19T02:17:42.305Z,11.50
2018-04-19T02:20:10.607Z,11.50
2018-04-19T02:22:38.108Z,11.50
2018-04-19T02:25:05.620Z,11.50
2018-04-19T02:27:33.920Z,11.40
2018-04-19T02:30:01.482Z,11.40
2018-04-19T02:32:29.002Z,11.50
2018-04-19T02:34:57.301Z,11.40
2018-04-19T02:37:25.611Z,11.40
2018-04-19T02:39:53.175Z,11.30
2018-04-19T02:42:20.707Z,11.40
2018-04-19T02:44:49.073Z,11.20
2018-04-19T02:47:16.597Z,11.10
2018-04-19T02:49:44.125Z,11.20
2018-04-19T02:52:12.402Z,11.20
2018-04-19T02:54:40.680Z,11.20
2018-04-19T02:57:08.979Z,11.10
2018-04-19T02:59:37.254Z,11.10
2018-04-19T03:02:05.521Z,11.10
2018-04-19T03:04:33.061Z,11.00
2018-04-19T03:07:00.565Z,11.20
2018-04-19T03:09:28.846Z,11.00
2018-04-19T03:11:57.149Z,11.00
2018-04-19T03:14:24.661Z,10.90
2018-04-19T03:16:52.168Z,10.90
2018-04-19T03:19:19.728Z,10.90
2018-04-19T03:21:47.255Z,10.80
2018-04-19T03:24:14.775Z,10.80
2018-04-19T03:26:42.300Z,10.80
2018-04-19T03:29:10.573Z,10.90
2018-04-19T03:31:38.082Z,10.80
2018-04-19T03:34:05.646Z,10.90
2018-04-19T03:36:33.149Z,10.90
2018-04-19T03:39:00.766Z,10.90
2018-04-19T03:41:28.882Z,10.90
2018-04-19T03:43:57.197Z,10.80
2018-04-19T03:46:24.770Z,10.80
2018-04-19T03:48:53.069Z,10.70
2018-04-19T03:51:20.609Z,10.60
2018-04-19T03:53:48.184Z,10.70
2018-04-19T03:56:15.673Z,10.60
2018-04-19T03:58:43.181Z,10.60
2018-04-19T04:01:10.744Z,10.70
2018-04-19T04:03:38.265Z,10.80
2018-04-19T04:06:05.769Z,10.70
2018-04-19T04:08:33.282Z,10.70
2018-04-19T04:11:00.821Z,10.70
2018-04-19T04:13:29.114Z,10.60
2018-04-19T04:15:57.453Z,10.50
2018-04-19T04:18:36.729Z,10.50
2018-04-19T04:21:18.041Z,10.60
2018-04-19T04:23:53.429Z,10.50
2018-04-19T04:26:21.710Z,10.70
2018-04-19T04:28:50.048Z,10.70
2018-04-19T04:31:18.565Z,10.60
2018-04-19T04:33:46.089Z,10.60
2018-04-19T04:36:13.601Z,10.60
2018-04-19T04:38:41.125Z,10.60
2018-04-19T04:41:08.647Z,10.60
2018-04-19T04:43:36.920Z,10.50
2018-04-19T04:46:04.510Z,10.40
2018-04-19T04:48:32.863Z,10.50
2018-04-19T04:51:01.905Z,10.60
2018-04-19T04:53:29.465Z,10.60
2018-04-19T04:55:56.972Z,10.70
2018-04-19T04:58:24.483Z,10.70
2018-04-19T05:00:52.874Z,10.70
2018-04-19T05:03:20.381Z,10.70
2018-04-19T05:05:47.951Z,10.60
2018-04-19T05:08:15.453Z,10.60
2018-04-19T05:10:43.726Z,10.60
2018-04-19T05:13:12.009Z,10.70
2018-04-19T05:15:40.349Z,10.70
2018-04-19T05:18:07.883Z,10.60
2018-04-19T05:20:35.397Z,10.80
2018-04-19T05:23:03.704Z,10.90
2018-04-19T05:25:31.983Z,10.90
2018-04-19T05:28:00.262Z,11.00
2018-04-19T05:30:28.566Z,11.00
2018-04-19T05:32:56.060Z,10.90
2018-04-19T05:35:24.242Z,11.10
2018-04-19T05:37:51.925Z,11.10
2018-04-19T05:40:19.444Z,11.40
2018-04-19T05:42:46.990Z,11.40
2018-04-19T05:45:15.286Z,11.70
2018-04-19T05:47:42.961Z,11.70
2018-04-19T05:50:10.777Z,12.00
2018-04-19T05:52:38.319Z,12.20
2018-04-19T05:55:05.846Z,12.40
2018-04-19T05:57:33.365Z,12.60
2018-04-19T06:00:01.685Z,13.00
2018-04-19T06:02:29.968Z,13.20
2018-04-19T06:04:58.244Z,13.40
2018-04-19T06:07:26.545Z,13.60
2018-04-19T06:09:54.056Z,13.50
2018-04-19T06:12:21.586Z,13.80
2018-04-19T06:14:49.112Z,14.00
2018-04-19T06:17:17.385Z,14.40
2018-04-19T06:19:45.661Z,14.60
2018-04-19T06:22:13.962Z,14.70
2018-04-19T06:24:42.261Z,14.90
2018-04-19T06:27:09.768Z,14.90
2018-04-19T06:29:37.293Z,15.10
2018-04-19T06:32:04.812Z,15.30
2018-04-19T06:34:33.840Z,15.50
2018-04-19T06:37:01.393Z,15.50
2018-04-19T06:39:29.674Z,16.00
2018-04-19T06:41:57.954Z,16.10
2018-04-19T06:44:26.261Z,16.40
2018-04-19T06:46:53.767Z,16.40
2018-04-19T06:49:21.276Z,16.60
2018-04-19T06:51:48.921Z,16.80
2018-04-19T06:54:17.205Z,17.20
2018-04-19T06:56:45.473Z,17.30
2018-04-19T06:59:13.799Z,17.40
2018-04-19T07:01:41.325Z,17.30
2018-04-19T07:04:09.598Z,18.10
2018-04-19T07:06:38.661Z,18.20
2018-04-19T07:09:06.179Z,18.20
2018-04-19T07:11:34.465Z,18.70
2018-04-19T07:14:02.780Z,18.80
2018-04-19T07:16:30.296Z,18.70
2018-04-19T07:18:57.816Z,19.20
2018-04-19T07:21:25.355Z,19.70
2018-04-19T07:23:52.906Z,20.00
2018-04-19T07:26:21.185Z,20.60
2018-04-19T07:28:48.757Z,20.50
2018-04-19T07:31:17.047Z,21.70
2018-04-19T07:33:44.554Z,21.60
2018-04-19T07:36:12.121Z,22.20
2018-04-19T07:38:39.834Z,22.80
2018-04-19T07:41:08.162Z,23.40
2018-04-19T07:43:35.700Z,23.30
2018-04-19T07:46:03.250Z,23.50
2018-04-19T07:48:31.505Z,24.90
2018-04-19T07:50:59.031Z,24.80
2018-04-19T07:53:26.621Z,25.40
2018-04-19T07:55:54.897Z,26.70
2018-04-19T07:58:22.427Z,26.60
2018-04-19T08:00:49.949Z,27.30
2018-04-19T08:03:18.225Z,27.20
2018-04-19T08:05:46.556Z,27.80
2018-04-19T08:08:14.066Z,27.70
2018-04-19T08:10:41.586Z,27.50
2018-04-19T08:13:09.169Z,26.90
2018-04-19T08:15:36.807Z,27.90
2018-04-19T08:18:04.358Z,27.60
2018-04-19T08:20:31.889Z,28.20
2018-04-19T08:22:59.406Z,29.20
2018-04-19T08:25:26.922Z,29.40
2018-04-19T08:27:55.219Z,29.10
2018-04-19T08:30:23.492Z,29.10
2018-04-19T08:32:51.771Z,29.40
2018-04-19T08:35:20.072Z,29.10
2018-04-19T08:37:47.588Z,29.00
2018-04-19T08:40:15.093Z,29.90
2018-04-19T08:42:42.781Z,28.70
2018-04-19T08:45:10.289Z,27.60
2018-04-19T08:47:37.820Z,27.80
2018-04-19T08:50:05.353Z,27.60
2018-04-19T08:52:33.624Z,28.00
2018-04-19T08:55:01.980Z,29.70
2018-04-19T08:57:29.550Z,29.60
2018-04-19T08:59:57.098Z,29.20
2018-04-19T09:02:24.613Z,27.40
2018-04-19T09:04:52.137Z,26.50
2018-04-19T09:07:19.769Z,28.80
2018-04-19T09:09:47.291Z,29.60
2018-04-19T09:12:15.581Z,28.40
2018-04-19T09:14:43.867Z,28.70
2018-04-19T09:17:11.401Z,28.70
2018-04-19T09:19:39.716Z,28.80
2018-04-19T09:22:07.235Z,28.70
2018-04-19T09:24:34.756Z,29.50
2018-04-19T09:27:02.313Z,30.00
2018-04-19T09:29:29.821Z,29.80
2018-04-19T09:31:57.334Z,29.60
2018-04-19T09:34:25.637Z,31.00
2018-04-19T09:36:53.144Z,30.90
2018-04-19T09:39:21.480Z,31.10
2018-04-19T09:41:49.005Z,31.00
2018-04-19T09:44:16.505Z,31.80
2018-04-19T09:46:44.021Z,32.30
2018-04-19T09:49:11.594Z,31.50
2018-04-19T09:51:39.868Z,31.70
2018-04-19T09:54:09.061Z,32.20
2018-04-19T09:56:36.526Z,32.20
2018-04-19T09:59:11.458Z,32.00
2018-04-19T10:01:44.785Z,32.00
2018-04-19T10:04:14.028Z,30.80
2018-04-19T10:06:41.568Z,30.70
2018-04-19T10:09:09.114Z,31.10
2018-04-19T10:11:36.653Z,30.80
2018-04-19T10:14:04.177Z,32.20
2018-04-19T10:16:31.706Z,33.40
2018-04-19T10:18:59.976Z,34.20
2018-04-19T10:21:28.283Z,33.10
2018-04-19T10:23:56.583Z,34.40
2018-04-19T10:26:24.092Z,34.30
2018-04-19T10:28:52.369Z,34.40
2018-04-19T10:31:20.693Z,35.00
2018-04-19T10:33:48.292Z,34.90
2018-04-19T10:36:15.773Z,34.40
2018-04-19T10:38:43.329Z,34.90
2018-04-19T10:41:11.668Z,35.10
2018-04-19T10:43:39.178Z,35.00
2018-04-19T10:46:06.717Z,34.10
2018-04-19T10:48:34.223Z,34.50
2018-04-19T10:51:02.502Z,37.50
2018-04-19T10:53:30.793Z,37.00
2018-04-19T10:55:59.070Z,36.30
2018-04-19T10:58:27.443Z,35.60
2018-04-19T11:00:55.801Z,36.20
2018-04-19T11:03:23.309Z,36.20
2018-04-19T11:05:51.572Z,35.40
2018-04-19T11:08:19.110Z,35.30
2018-04-19T11:10:46.625Z,36.70
2018-04-19T11:13:14.901Z,37.00
2018-04-19T11:15:43.189Z,37.60
2018-04-19T11:18:11.464Z,37.00
2018-04-19T11:20:39.734Z,37.10
2018-04-19T11:23:08.031Z,37.10
2018-04-19T11:25:36.310Z,37.30
2018-04-19T11:28:04.638Z,38.30
2018-04-19T11:30:32.157Z,38.20
2018-04-19T11:33:00.421Z,39.10
2018-04-19T11:35:28.704Z,39.20
2018-04-19T11:37:56.224Z,39.10
2018-04-19T11:40:23.738Z,38.70
2018-04-19T11:42:52.005Z,37.30
2018-04-19T11:45:21.054Z,36.80
2018-04-19T11:47:48.610Z,36.80
2018-04-19T11:50:16.144Z,35.80
2018-04-19T11:52:43.742Z,36.90
2018-04-19T11:55:11.252Z,36.90
2018-04-19T11:57:38.978Z,35.70
2018-04-19T12:00:06.747Z,35.30
2018-04-19T12:02:34.300Z,35.70
2018-04-19T12:05:01.805Z,35.80
2018-04-19T12:07:29.335Z,34.90
2018-04-19T12:09:56.845Z,34.60
2018-04-19T12:12:24.350Z,34.60
2018-04-19T12:14:52.663Z,33.20
2018-04-19T12:17:20.182Z,33.20
2018-04-19T12:19:48.463Z,33.50
2018-04-19T12:22:16.765Z,33.90
2018-04-19T12:24:44.856Z,33.80
2018-04-19T12:27:12.542Z,33.20
2018-04-19T12:29:40.102Z,32.90
2018-04-19T12:32:07.613Z,32.10
2018-04-19T12:34:35.302Z,32.20
2018-04-19T12:37:02.972Z,33.30
2018-04-19T12:39:30.506Z,33.20
2018-04-19T12:41:58.801Z,32.00
2018-04-19T12:44:27.209Z,31.70
2018-04-19T12:46:54.718Z,31.60
2018-04-19T12:49:22.361Z,32.00
2018-04-19T12:51:49.891Z,32.60
2018-04-19T12:54:18.210Z,32.90
2018-04-19T12:56:45.827Z,32.80
2018-04-19T12:59:14.136Z,33.90
2018-04-19T13:01:41.849Z,33.80
2018-04-19T13:04:09.363Z,33.60
2018-04-19T13:06:36.946Z,34.90
2018-04-19T13:09:04.474Z,34.10
2018-04-19T13:11:32.819Z,35.40
2018-04-19T13:14:00.317Z,35.30
2018-04-19T13:16:27.859Z,36.00
2018-04-19T13:18:56.224Z,34.80
2018-04-19T13:21:23.749Z,34.70
2018-04-19T13:23:52.028Z,32.90
2018-04-19T13:26:19.549Z,32.80
2018-04-19T13:28:47.081Z,32.30
2018-04-19T13:31:14.590Z,31.30
2018-04-19T13:33:42.204Z,31.50
2018-04-19T13:36:09.758Z,31.20
2018-04-19T13:38:37.261Z,31.30
2018-04-19T13:41:04.774Z,30.50
2018-04-19T13:43:32.311Z,30.20
2018-04-19T13:46:00.586Z,29.30
2018-04-19T13:48:28.098Z,29.20
2018-04-19T13:50:55.637Z,29.00
2018-04-19T13:53:23.950Z,28.30
2018-04-19T13:55:51.512Z,28.20
2018-04-19T13:58:19.037Z,28.10
2018-04-19T14:00:46.552Z,27.30
2018-04-19T14:03:14.205Z,27.30
2018-04-19T14:05:41.746Z,27.10
2018-04-19T14:08:10.036Z,27.00
2018-04-19T14:10:37.562Z,27.00
2018-04-19T14:13:05.090Z,26.80
2018-04-19T14:15:32.591Z,26.90
2018-04-19T14:18:01.618Z,26.60
2018-04-19T14:20:29.910Z,26.50
2018-04-19T14:22:57.416Z,26.50
2018-04-19T14:25:24.923Z,26.40
2018-04-19T14:27:53.236Z,26.30
2018-04-19T14:30:20.748Z,26.30
2018-04-19T14:32:49.033Z,26.30
2018-04-19T14:35:17.336Z,26.30
2018-04-19T14:37:44.865Z,26.30
2018-04-19T14:40:12.391Z,26.20
2018-04-19T14:42:40.679Z,26.00
2018-04-19T14:45:08.229Z,25.90
2018-04-19T14:47:35.737Z,26.00
2018-04-19T14:50:03.266Z,25.90
2018-04-19T14:52:30.775Z,25.90
2018-04-19T14:54:59.069Z,25.80
2018-04-19T14:57:27.365Z,25.70
2018-04-19T14:59:55.687Z,25.70
2018-04-19T15:02:23.209Z,25.70
2018-04-19T15:04:51.725Z,25.40
2018-04-19T15:07:19.251Z,25.40
2018-04-19T15:09:47.531Z,25.50
2018-04-19T15:12:15.846Z,25.50
2018-04-19T15:14:43.357Z,25.50
2018-04-19T15:17:12.370Z,25.50
2018-04-19T15:19:40.672Z,25.40
2018-04-19T15:22:08.953Z,25.30
2018-04-19T15:24:36.458Z,25.30
2018-04-19T15:27:03.996Z,25.30
2018-04-19T15:29:31.498Z,25.30
2018-04-19T15:31:59.003Z,25.30
2018-04-19T15:34:27.313Z,25.30
2018-04-19T15:36:54.821Z,25.20
2018-04-19T15:39:23.117Z,25.20
2018-04-19T15:41:51.409Z,25.10
2018-04-19T15:44:19.681Z,25.10
2018-04-19T15:46:47.990Z,25.10
2018-04-19T15:49:15.544Z,25.00
2018-04-19T15:51:43.072Z,24.90
2018-04-19T15:54:12.118Z,24.90
2018-04-19T15:56:39.702Z,24.90
2018-04-19T15:59:07.218Z,24.90
2018-04-19T16:01:35.490Z,24.80
2018-04-19T16:04:04.021Z,24.80
2018-04-19T16:06:32.679Z,24.70
2018-04-19T16:09:00.759Z,24.70
2018-04-19T16:11:28.317Z,24.70
2018-04-19T16:13:56.598Z,24.70
2018-04-19T16:16:24.874Z,24.60
2018-04-19T16:18:53.184Z,24.60
2018-04-19T16:21:20.705Z,24.60
2018-04-19T16:23:48.238Z,24.50
2018-04-19T16:26:15.767Z,24.60
2018-04-19T16:28:48.625Z,24.40
2018-04-19T16:31:11.595Z,24.40
2018-04-19T16:33:39.898Z,24.40
2018-04-19T16:36:07.417Z,24.30
2018-04-19T16:38:35.009Z,24.30
2018-04-19T16:41:02.641Z,24.30
2018-04-19T16:43:30.119Z,24.20
2018-04-19T16:45:58.394Z,24.10
2018-04-19T16:48:26.693Z,24.10
2018-04-19T16:50:54.970Z,24.00
2018-04-19T16:53:22.524Z,24.00
2018-04-19T16:55:50.824Z,23.90
2018-04-19T16:58:19.093Z,23.80
2018-04-19T17:00:46.597Z,23.70
2018-04-19T17:03:14.139Z,23.70
2018-04-19T17:05:42.453Z,23.60
2018-04-19T17:08:10.086Z,23.50
2018-04-19T17:10:38.377Z,23.40
2018-04-19T17:13:06.776Z,23.30
2018-04-19T17:15:34.324Z,23.20
2018-04-19T17:18:02.614Z,23.20
2018-04-19T17:20:31.025Z,23.20
2018-04-19T17:22:58.541Z,23.10
2018-04-19T17:25:26.864Z,23.10
2018-04-19T17:27:54.389Z,23.10
2018-04-19T17:30:22.665Z,23.00
2018-04-19T17:32:50.207Z,23.00
2018-04-19T17:35:17.723Z,23.00
2018-04-19T17:37:45.260Z,22.90
2018-04-19T17:40:13.557Z,22.90
2018-04-19T17:42:41.829Z,22.80
2018-04-19T17:45:10.107Z,22.80
2018-04-19T17:47:38.411Z,22.70
2018-04-19T17:50:05.957Z,22.60
2018-04-19T17:52:34.237Z,22.50
2018-04-19T17:55:03.360Z,22.40
2018-04-19T17:57:30.869Z,22.40
2018-04-19T17:59:58.393Z,22.30
2018-04-19T18:02:25.931Z,22.30
2018-04-19T18:04:54.234Z,22.10
2018-04-19T18:07:22.528Z,22.10
2018-04-19T18:09:50.317Z,22.00
2018-04-19T18:12:18.677Z,21.90
2018-04-19T18:14:46.185Z,21.90
2018-04-19T18:17:13.722Z,21.90
2018-04-19T18:19:41.261Z,21.80
2018-04-19T18:22:08.786Z,21.80
2018-04-19T18:24:37.112Z,21.60
2018-04-19T18:27:04.650Z,21.50
2018-04-19T18:29:32.157Z,21.50
2018-04-19T18:31:59.748Z,21.40
2018-04-19T18:34:27.551Z,21.40
2018-04-19T18:36:55.861Z,21.30
2018-04-19T18:39:23.412Z,21.20
2018-04-19T18:41:50.934Z,21.20
2018-04-19T18:44:18.458Z,21.10
2018-04-19T18:46:45.992Z,21.00
2018-04-19T18:49:13.569Z,21.00
2018-04-19T18:51:41.111Z,20.90
2018-04-19T18:54:09.408Z,20.80
2018-04-19T18:56:36.937Z,20.70
2018-04-19T18:59:05.238Z,20.70
2018-04-19T19:01:33.616Z,20.70
2018-04-19T19:04:02.043Z,20.70
2018-04-19T19:06:29.599Z,20.60
2018-04-19T19:08:57.178Z,20.60
2018-04-19T19:11:24.857Z,20.60
2018-04-19T19:13:52.444Z,20.50
2018-04-19T19:16:20.064Z,20.50
2018-04-19T19:18:59.438Z,20.50
2018-04-19T19:21:27.780Z,20.50
2018-04-19T19:23:55.322Z,20.40
2018-04-19T19:26:22.941Z,20.40
2018-04-19T19:28:50.546Z,20.40
2018-04-19T19:31:18.887Z,20.20
2018-04-19T19:33:46.491Z,20.10
2018-04-19T19:36:14.805Z,20.10
2018-04-19T19:38:42.398Z,20.00
2018-04-19T19:41:10.707Z,19.90
2018-04-19T19:43:39.017Z,19.80
2018-04-19T19:46:06.524Z,19.80
2018-04-19T19:48:34.049Z,19.70
2018-04-19T19:51:01.588Z,19.70
2018-04-19T19:53:29.883Z,19.60
2018-04-19T19:55:58.170Z,19.60
2018-04-19T19:58:26.504Z,19.60
2018-04-19T20:00:54.073Z,19.50
2018-04-19T20:03:21.593Z,19.50
2018-04-19T20:05:49.202Z,19.40
2018-04-19T20:08:16.715Z,19.40
2018-04-19T20:10:44.248Z,19.30
2018-04-19T20:13:12.963Z,19.10
2018-04-19T20:15:40.574Z,19.00
2018-04-19T20:18:08.187Z,19.10
2018-04-19T20:20:36.860Z,19.00
2018-04-19T20:23:05.505Z,19.00
2018-04-19T20:25:33.201Z,19.00
2018-04-19T20:28:01.805Z,18.80
2018-04-19T20:30:30.279Z,18.80
2018-04-19T20:32:58.589Z,18.80
2018-04-19T20:35:26.905Z,18.80
2018-04-19T20:37:54.417Z,18.70
2018-04-19T20:40:23.446Z,18.70
2018-04-19T20:42:51.793Z,18.70
2018-04-19T20:45:19.312Z,18.70
2018-04-19T20:47:46.938Z,18.70
2018-04-19T20:50:15.303Z,18.60
2018-04-19T20:52:42.855Z,18.50
2018-04-19T20:55:10.356Z,18.50
2018-04-19T20:57:37.913Z,18.50
2018-04-19T21:00:05.425Z,18.50
2018-04-19T21:02:32.933Z,18.50
2018-04-19T21:05:01.989Z,18.30
2018-04-19T21:07:29.515Z,18.20
2018-04-19T21:09:58.033Z,18.20
2018-04-19T21:12:25.573Z,18.20
2018-04-19T21:14:54.039Z,18.20
2018-04-19T21:17:21.550Z,18.10
2018-04-19T21:19:49.073Z,18.10
2018-04-19T21:22:17.499Z,18.00
2018-04-19T21:24:45.025Z,18.00
2018-04-19T21:27:13.322Z,18.00
2018-04-19T21:29:40.842Z,17.90
2018-04-19T21:32:08.362Z,17.90
2018-04-19T21:34:35.897Z,17.90
2018-04-19T21:37:04.236Z,17.90
2018-04-19T21:39:31.745Z,17.80
2018-04-19T21:42:00.212Z,17.70
2018-04-19T21:44:27.723Z,17.60
2018-04-19T21:46:55.245Z,17.60
2018-04-19T21:49:22.797Z,17.60
2018-04-19T21:51:51.119Z,17.50
2018-04-19T21:54:18.637Z,17.50
2018-04-19T21:56:46.183Z,17.50
2018-04-19T21:59:13.702Z,17.40
2018-04-19T22:01:41.983Z,17.30
2018-04-19T22:04:10.287Z,17.30
2018-04-19T22:06:37.803Z,17.20
2018-04-19T22:09:06.085Z,17.20
2018-04-19T22:11:33.626Z,17.10
2018-04-19T22:14:01.130Z,16.90
2018-04-19T22:16:29.500Z,16.90
2018-04-19T22:18:57.041Z,16.80
2018-04-19T22:21:24.550Z,16.80
2018-04-19T22:23:52.837Z,16.70
2018-04-19T22:26:21.139Z,16.80
2018-04-19T22:28:48.699Z,16.70
2018-04-19T22:31:16.224Z,16.60
2018-04-19T22:33:44.513Z,16.60
2018-04-19T22:36:12.806Z,16.50
2018-04-19T22:38:41.084Z,16.50
2018-04-19T22:41:09.365Z,16.50
2018-04-19T22:43:37.645Z,16.40
2018-04-19T22:46:05.942Z,16.40
2018-04-19T22:48:33.483Z,16.30
2018-04-19T22:51:01.024Z,16.40
2018-04-19T22:53:28.538Z,16.30
2018-04-19T22:55:56.077Z,16.30
2018-04-19T22:58:24.358Z,16.10
2018-04-19T23:00:52.746Z,16.00
2018-04-19T23:03:20.297Z,15.90
2018-04-19T23:05:47.812Z,16.00
2018-04-19T23:08:15.318Z,16.00
2018-04-19T23:10:43.621Z,15.90
2018-04-19T23:13:11.893Z,16.00
2018-04-19T23:15:39.414Z,15.90
2018-04-19T23:18:07.017Z,16.00
2018-04-19T23:20:34.546Z,15.90
2018-04-19T23:23:02.057Z,15.90
2018-04-19T23:25:30.349Z,15.80
2018-04-19T23:27:58.688Z,15.70
2018-04-19T23:30:26.201Z,15.70
2018-04-19T23:32:53.763Z,15.70
2018-04-19T23:35:21.290Z,15.70
2018-04-19T23:37:48.812Z,15.60
2018-04-19T23:40:16.356Z,15.60
2018-04-19T23:42:43.874Z,15.60
2018-04-19T23:45:11.381Z,15.50
2018-04-19T23:47:38.936Z,15.50
2018-04-19T23:50:07.217Z,15.40
2018-04-19T23:52:35.501Z,15.40
2018-04-19T23:55:03.801Z,15.40
2018-04-19T23:57:31.309Z,15.30
2018-04-19T23:59:58.823Z,15.30
